createdAt,value
2023-02-03T03:14:05.811Z,89121.00
2023-02-03T03:16:05.775Z,89119.00
2023-02-03T03:17:05.691Z,89127.00
2023-02-03T03:18:05.688Z,89125.00
2023-02-03T03:19:05.651Z,89131.00
2023-02-03T03:20:05.652Z,89131.00
2023-02-03T03:21:05.608Z,89127.00
2023-02-03T03:22:05.598Z,89127.00
2023-02-03T03:23:05.571Z,89129.00
2023-02-03T03:24:05.563Z,89123.00
2023-02-03T03:25:05.577Z,89125.00
2023-02-03T03:26:05.486Z,89127.00
2023-02-03T03:27:05.478Z,89129.00
2023-02-03T03:28:05.536Z,89131.00
2023-02-03T03:29:05.409Z,89131.00
2023-02-03T03:30:05.443Z,89135.00
2023-02-03T03:31:05.460Z,89137.00
2023-02-03T03:32:05.447Z,89139.00
2023-02-03T03:33:05.326Z,89139.00
2023-02-03T03:34:05.287Z,89139.00
2023-02-03T03:35:05.291Z,89135.00
2023-02-03T03:36:05.256Z,89135.00
2023-02-03T03:37:05.248Z,89133.00
2023-02-03T03:38:05.235Z,89137.00
2023-02-03T03:39:05.195Z,89135.00
2023-02-03T03:40:05.200Z,89131.00
2023-02-03T03:41:05.173Z,89133.00
2023-02-03T03:42:05.173Z,89133.00
2023-02-03T03:43:05.153Z,89135.00
2023-02-03T03:44:05.095Z,89137.00
2023-02-03T03:45:05.079Z,89139.00
2023-02-03T03:46:05.096Z,89147.00
2023-02-03T03:47:05.043Z,89149.00
2023-02-03T03:48:05.033Z,89147.00
2023-02-03T03:49:05.033Z,89143.00
2023-02-03T03:50:04.975Z,89137.00
2023-02-03T03:51:04.934Z,89135.00
2023-02-03T03:52:04.935Z,89139.00
2023-02-03T03:53:04.894Z,89143.00
2023-02-03T03:54:04.905Z,89141.00
2023-02-03T03:55:04.851Z,89141.00
2023-02-03T03:56:04.829Z,89137.00
2023-02-03T03:57:04.818Z,89135.00
2023-02-03T03:58:04.792Z,89139.00
2023-02-03T03:59:04.742Z,89139.00
2023-02-03T04:00:04.731Z,89137.00
2023-02-03T04:01:04.764Z,89137.00
2023-02-03T04:02:05.126Z,89137.00
2023-02-03T04:03:04.701Z,89137.00
2023-02-03T04:04:04.607Z,89139.00
2023-02-03T04:05:04.589Z,89139.00
2023-02-03T04:06:04.566Z,89149.00
2023-02-03T04:07:04.517Z,89143.00
2023-02-03T04:08:04.542Z,89137.00
2023-02-03T04:09:04.487Z,89129.00
2023-02-03T04:10:04.466Z,89121.00
2023-02-03T04:11:04.467Z,89123.00
2023-02-03T04:12:04.427Z,89125.00
2023-02-03T04:13:04.394Z,89125.00
2023-02-03T04:14:04.404Z,89123.00
2023-02-03T04:15:04.354Z,89123.00
2023-02-03T04:16:04.368Z,89125.00
2023-02-03T04:17:04.317Z,89123.00
2023-02-03T04:18:04.273Z,89125.00
2023-02-03T04:19:04.442Z,89127.00
2023-02-03T04:20:04.225Z,89137.00
2023-02-03T04:21:04.222Z,89147.00
2023-02-03T04:22:04.188Z,89153.00
2023-02-03T04:23:04.139Z,89153.00
2023-02-03T04:24:04.219Z,89161.00
2023-02-03T04:25:04.117Z,89161.00
2023-02-03T04:26:04.088Z,89161.00
2023-02-03T04:27:05.336Z,89168.00
2023-02-03T04:29:04.024Z,89178.00
2023-02-03T04:30:04.008Z,89172.00
2023-02-03T04:31:04.087Z,89170.00
2023-02-03T04:32:04.006Z,89172.00
2023-02-03T04:33:03.924Z,89170.00
2023-02-03T04:34:03.889Z,89164.00
2023-02-03T04:55:03.278Z,89129.00
2023-02-03T04:56:03.268Z,89133.00
2023-02-03T04:57:03.215Z,89129.00
2023-02-03T04:58:03.185Z,89127.00
2023-02-03T04:59:03.138Z,89121.00
2023-02-03T05:00:03.119Z,89123.00
2023-02-03T05:01:03.164Z,89127.00
2023-02-03T05:02:03.071Z,89137.00
2023-02-03T05:03:03.076Z,89143.00
2023-02-03T05:04:03.015Z,89141.00
2023-02-03T05:05:02.978Z,89139.00
2023-02-03T05:06:02.948Z,89143.00
2023-02-03T05:07:02.937Z,89149.00
2023-02-03T05:08:02.880Z,89151.00
2023-02-03T05:09:02.856Z,89145.00
2023-02-03T05:10:02.830Z,89143.00
2023-02-03T05:11:03.534Z,89139.00
2023-02-03T05:12:02.764Z,89135.00
2023-02-03T05:13:02.754Z,89135.00
2023-02-03T05:14:02.705Z,89149.00
2023-02-03T05:15:02.687Z,89161.00
2023-02-03T05:16:02.690Z,89170.00
2023-02-03T05:17:02.638Z,89172.00
2023-02-03T05:18:02.591Z,89176.00
2023-02-03T05:19:02.545Z,89178.00
2023-02-03T05:20:02.525Z,89178.00
2023-02-03T05:21:02.510Z,89180.00
2023-02-03T05:22:02.506Z,89182.00
2023-02-03T05:23:02.455Z,89182.00
2023-02-03T05:24:02.458Z,89180.00
2023-02-03T05:25:02.417Z,89182.00
2023-02-03T05:26:02.399Z,89182.00
2023-02-03T05:27:02.369Z,89186.00
2023-02-03T05:28:02.404Z,89190.00
2023-02-03T05:29:02.311Z,89190.00
2023-02-03T05:30:02.324Z,89188.00
2023-02-03T05:31:02.313Z,89192.00
2023-02-03T05:32:02.388Z,89196.00
2023-02-03T05:33:02.230Z,89200.00
2023-02-03T05:34:02.184Z,89206.00
2023-02-03T05:35:02.195Z,89210.00
2023-02-03T05:36:02.163Z,89215.00
2023-02-03T05:37:02.148Z,89223.00
2023-02-03T05:38:02.117Z,89225.00
2023-02-03T05:39:02.335Z,89229.00
2023-02-03T05:40:09.302Z,89231.00
2023-02-03T05:41:02.037Z,89229.00
2023-02-03T05:42:02.059Z,89231.00
2023-02-03T05:43:01.972Z,89233.00
2023-02-03T05:44:01.985Z,89231.00
2023-02-03T05:45:01.957Z,89227.00
2023-02-03T05:46:02.005Z,89223.00
2023-02-03T05:47:01.947Z,89223.00
2023-02-03T05:48:01.890Z,89225.00
2023-02-03T05:49:01.875Z,89217.00
2023-02-03T05:50:01.838Z,89219.00
2023-02-03T05:51:01.806Z,89219.00
2023-02-03T05:52:01.785Z,89223.00
2023-02-03T05:53:01.751Z,89225.00
2023-02-03T05:54:01.754Z,89227.00
2023-02-03T05:55:01.721Z,89231.00
2023-02-03T05:56:01.703Z,89231.00
2023-02-03T05:57:01.685Z,89231.00
2023-02-03T05:58:01.641Z,89233.00
2023-02-03T05:59:01.627Z,89235.00
2023-02-03T06:00:01.581Z,89231.00
2023-02-03T06:01:01.582Z,89229.00
2023-02-03T06:02:01.611Z,89231.00
2023-02-03T06:03:01.628Z,89231.00
2023-02-03T06:04:01.665Z,89227.00
2023-02-03T06:05:01.473Z,89231.00
2023-02-03T06:06:01.426Z,89233.00
2023-02-03T06:07:01.403Z,89233.00
2023-02-03T06:08:01.431Z,89237.00
2023-02-03T06:09:02.101Z,89243.00
2023-02-03T06:10:01.365Z,89247.00
2023-02-03T06:11:01.313Z,89241.00
2023-02-03T06:12:01.306Z,89241.00
2023-02-03T06:13:01.248Z,89241.00
2023-02-03T06:14:01.216Z,89237.00
2023-02-03T06:15:01.216Z,89237.00
2023-02-03T06:16:01.178Z,89235.00
2023-02-03T06:17:01.202Z,89239.00
2023-02-03T06:18:01.137Z,89239.00
2023-02-03T06:19:01.193Z,89233.00
2023-02-03T06:20:01.104Z,89235.00
2023-02-03T06:21:01.056Z,89237.00
2023-02-03T06:22:01.021Z,89237.00
2023-02-03T06:23:01.008Z,89239.00
2023-02-03T06:24:00.980Z,89247.00
2023-02-03T06:25:00.972Z,89247.00
2023-02-03T06:26:00.922Z,89255.00
2023-02-03T06:27:00.891Z,89253.00
2023-02-03T06:28:00.989Z,89247.00
2023-02-03T06:51:01.365Z,89219.00
2023-02-03T06:54:01.682Z,89213.00
2023-02-03T06:56:01.072Z,89213.00
2023-02-03T06:58:03.491Z,89206.00
2023-02-03T06:59:02.121Z,89208.00
2023-02-03T08:35:57.535Z,89274.00
2023-02-03T08:36:57.538Z,89276.00
2023-02-03T08:37:57.586Z,89276.00
2023-02-03T08:38:58.105Z,89274.00
2023-02-03T08:40:57.664Z,89278.00
2023-02-03T08:41:58.158Z,89276.00
2023-02-03T08:43:57.512Z,89274.00
2023-02-03T08:44:57.715Z,89270.00
2023-02-03T08:45:57.466Z,89268.00
2023-02-03T08:46:58.119Z,89255.00
2023-02-03T08:47:57.298Z,89247.00
2023-02-03T08:48:57.390Z,89245.00
2023-02-03T08:49:57.233Z,89247.00
2023-02-03T08:50:57.223Z,89251.00
2023-02-03T08:51:57.157Z,89249.00
2023-02-03T08:52:57.151Z,89249.00
2023-02-03T08:53:57.046Z,89243.00
2023-02-03T08:55:57.120Z,89237.00
2023-02-03T08:56:57.026Z,89237.00
2023-02-03T08:57:56.981Z,89237.00
2023-02-03T08:58:56.878Z,89233.00
2023-02-03T08:59:56.850Z,89237.00
2023-02-03T09:00:56.881Z,89235.00
2023-02-03T09:01:56.956Z,89235.00
2023-02-03T09:02:58.608Z,89231.00
2023-02-03T09:04:57.364Z,89231.00
2023-02-03T09:05:56.887Z,89231.00
2023-02-03T09:06:56.637Z,89231.00
2023-02-03T09:07:56.615Z,89233.00
2023-02-03T09:08:56.639Z,89235.00
2023-02-03T09:09:59.854Z,89237.00
2023-02-03T09:10:56.778Z,89241.00
2023-02-03T09:11:57.088Z,89239.00
2023-02-03T09:13:56.656Z,89237.00
2023-02-03T09:14:56.642Z,89237.00
2023-02-03T09:15:56.284Z,89233.00
2023-02-03T09:16:56.304Z,89233.00
2023-02-03T09:18:03.243Z,89227.00
2023-02-03T09:18:56.195Z,89229.00
2023-02-03T09:19:56.206Z,89227.00
2023-02-03T09:20:56.717Z,89221.00
2023-02-03T09:21:56.096Z,89215.00
2023-02-03T09:22:56.081Z,89215.00
2023-02-03T09:25:56.089Z,89213.00
2023-02-03T09:26:56.024Z,89210.00
2023-02-03T09:27:56.030Z,89211.00
2023-02-03T09:28:55.920Z,89210.00
2023-02-03T09:29:55.909Z,89210.00
2023-02-03T09:30:55.818Z,89206.00
2023-02-03T09:31:55.803Z,89206.00
2023-02-03T09:32:55.855Z,89204.00
2023-02-03T09:33:55.727Z,89204.00
2023-02-03T09:34:55.673Z,89204.00
2023-02-03T09:35:55.584Z,89204.00
2023-02-03T09:36:55.552Z,89204.00
2023-02-03T09:37:55.462Z,89208.00
2023-02-03T09:38:55.466Z,89208.00
2023-02-03T09:39:55.406Z,89202.00
2023-02-03T09:41:10.477Z,89198.00
2023-02-03T09:41:56.313Z,89194.00
2023-02-03T09:42:55.312Z,89198.00
2023-02-03T09:43:55.706Z,89194.00
2023-02-03T09:44:56.075Z,89194.00
2023-02-03T09:45:57.007Z,89194.00
2023-02-03T09:46:55.554Z,89194.00
2023-02-03T09:47:56.130Z,89190.00
2023-02-03T09:48:55.157Z,89188.00
2023-02-03T09:49:55.118Z,89192.00
2023-02-03T09:50:55.699Z,89194.00
2023-02-03T09:51:55.035Z,89190.00
2023-02-03T09:52:55.094Z,89192.00
2023-02-03T09:53:55.111Z,89192.00
2023-02-03T09:54:54.955Z,89198.00
2023-02-03T09:55:54.983Z,89198.00
2023-02-03T09:56:55.180Z,89192.00
2023-02-03T09:57:54.765Z,89190.00
2023-02-03T09:58:54.806Z,89194.00
2023-02-03T09:59:54.812Z,89196.00
2023-02-03T10:00:54.806Z,89196.00
2023-02-03T10:01:54.638Z,89196.00
2023-02-03T10:02:54.639Z,89198.00
2023-02-03T10:03:54.616Z,89200.00
2023-02-03T10:04:54.559Z,89204.00
2023-02-03T10:05:54.454Z,89202.00
2023-02-03T10:06:54.428Z,89198.00
2023-02-03T10:07:55.240Z,89198.00
2023-02-03T10:08:54.363Z,89194.00
2023-02-03T10:09:54.324Z,89196.00
2023-02-03T10:10:54.331Z,89198.00
2023-02-03T10:11:54.240Z,89196.00
2023-02-03T10:12:54.187Z,89190.00
2023-02-03T10:13:54.151Z,89186.00
2023-02-03T10:14:54.110Z,89184.00
2023-02-03T10:15:54.100Z,89184.00
2023-02-03T10:16:54.102Z,89184.00
2023-02-03T10:17:54.029Z,89178.00
2023-02-03T10:18:54.002Z,89182.00
2023-02-03T10:19:53.927Z,89184.00
2023-02-03T10:20:54.660Z,89184.00
2023-02-03T10:21:54.260Z,89178.00
2023-02-03T10:22:54.236Z,89174.00
2023-02-03T10:23:54.653Z,89172.00
2023-02-03T10:24:54.632Z,89172.00
2023-02-03T10:25:55.207Z,89174.00
2023-02-03T10:26:54.281Z,89172.00
2023-02-03T10:27:53.703Z,89174.00
2023-02-03T10:28:53.633Z,89176.00
2023-02-03T10:29:53.628Z,89178.00
2023-02-03T10:30:53.623Z,89180.00
2023-02-03T10:31:54.740Z,89174.00
2023-02-03T10:32:53.473Z,89172.00
2023-02-03T10:33:54.112Z,89174.00
2023-02-03T10:34:53.560Z,89174.00
2023-02-03T10:35:53.467Z,89172.00
2023-02-03T10:36:53.371Z,89172.00
2023-02-03T10:37:53.411Z,89174.00
2023-02-03T10:38:54.435Z,89176.00
2023-02-03T10:39:53.190Z,89172.00
2023-02-03T10:40:53.390Z,89174.00
2023-02-03T10:41:53.248Z,89174.00
2023-02-03T10:42:53.209Z,89172.00
2023-02-03T10:43:53.159Z,89170.00
2023-02-03T10:44:53.145Z,89174.00
2023-02-03T10:45:53.406Z,89172.00
2023-02-03T10:46:52.923Z,89170.00
2023-02-03T10:47:53.025Z,89174.00
2023-02-03T10:48:57.781Z,89172.00
2023-02-03T10:49:53.884Z,89168.00
2023-02-03T10:50:52.797Z,89164.00
2023-02-03T10:51:52.869Z,89157.00
2023-02-03T10:52:52.893Z,89149.00
2023-02-03T10:53:53.121Z,89151.00
2023-02-03T10:54:52.715Z,89151.00
2023-02-03T10:55:52.577Z,89149.00
2023-02-03T10:56:54.176Z,89147.00
2023-02-03T10:57:52.696Z,89143.00
2023-02-03T10:58:52.492Z,89141.00
2023-02-03T10:59:52.537Z,89139.00
2023-02-03T11:00:52.510Z,89139.00
2023-02-03T11:01:52.590Z,89137.00
2023-02-03T11:02:52.601Z,89135.00
2023-02-03T11:03:53.150Z,89137.00
2023-02-03T11:04:52.463Z,89133.00
2023-02-03T11:05:53.358Z,89135.00
2023-02-03T11:06:52.270Z,89135.00
2023-02-03T11:07:52.163Z,89131.00
2023-02-03T11:08:52.355Z,89127.00
2023-02-03T11:09:52.490Z,89129.00
2023-02-03T11:10:52.153Z,89129.00
2023-02-03T11:11:52.096Z,89123.00
2023-02-03T11:12:52.856Z,89123.00
2023-02-03T11:13:52.815Z,89121.00
2023-02-03T11:14:52.019Z,89125.00
2023-02-03T11:15:52.169Z,89123.00
2023-02-03T11:16:52.247Z,89115.00
2023-02-03T11:17:51.837Z,89106.00
2023-02-03T11:18:51.865Z,89102.00
2023-02-03T11:19:51.808Z,89106.00
2023-02-03T11:20:51.713Z,89102.00
2023-02-03T11:21:53.339Z,89100.00
2023-02-03T11:22:51.641Z,89100.00
2023-02-03T11:23:51.649Z,89106.00
2023-02-03T11:24:51.669Z,89113.00
2023-02-03T11:25:51.563Z,89113.00
2023-02-03T11:26:51.534Z,89113.00
2023-02-03T11:27:51.633Z,89111.00
2023-02-03T11:28:51.606Z,89113.00
2023-02-03T11:29:51.355Z,89111.00
2023-02-03T11:30:51.323Z,89113.00
2023-02-03T11:31:51.708Z,89109.00
2023-02-03T11:32:51.209Z,89106.00
2023-02-03T11:33:51.339Z,89108.00
2023-02-03T11:34:51.179Z,89109.00
2023-02-03T11:35:51.096Z,89108.00
2023-02-03T11:36:51.046Z,89109.00
2023-02-03T11:37:50.990Z,89108.00
2023-02-03T11:38:51.026Z,89106.00
2023-02-03T11:39:50.924Z,89100.00
2023-02-03T11:41:51.681Z,89102.00
2023-02-03T11:43:53.139Z,89102.00
2023-02-03T11:44:51.706Z,89098.00
2023-02-03T12:00:52.573Z,89090.00
2023-02-03T12:09:17.365Z,89086.00
2023-02-03T12:09:54.540Z,89082.00
2023-02-03T12:28:51.394Z,89068.00
2023-02-03T13:26:48.721Z,88991.00
2023-02-03T13:27:48.718Z,88991.00
2023-02-03T13:28:48.642Z,88991.00
2023-02-03T13:29:48.659Z,88991.00
2023-02-03T13:30:48.564Z,88991.00
2023-02-03T13:31:48.611Z,88983.00
2023-02-03T13:32:48.559Z,88979.00
2023-02-03T13:33:48.455Z,88977.00
2023-02-03T13:34:48.611Z,88977.00
2023-02-03T13:35:48.418Z,88983.00
2023-02-03T13:36:48.388Z,88981.00
2023-02-03T13:37:48.359Z,88977.00
2023-02-03T13:38:48.335Z,88977.00
2023-02-03T13:39:48.295Z,88977.00
2023-02-03T13:40:48.740Z,88973.00
2023-02-03T13:41:48.216Z,88969.00
2023-02-03T13:42:48.207Z,88965.00
2023-02-03T13:43:48.219Z,88967.00
2023-02-03T13:44:48.126Z,88971.00
2023-02-03T13:45:48.078Z,88969.00
2023-02-03T13:46:48.026Z,88971.00
2023-02-03T13:47:47.999Z,88965.00
2023-02-03T13:48:47.965Z,88965.00
2023-02-03T13:49:48.744Z,88967.00
2023-02-03T13:50:47.956Z,88971.00
2023-02-03T13:51:47.897Z,88965.00
2023-02-03T13:52:47.864Z,88959.00
2023-02-03T13:53:47.874Z,88955.00
2023-02-03T13:54:47.798Z,88951.00
2023-02-03T13:55:47.821Z,88949.00
2023-02-03T13:56:47.741Z,88947.00
2023-02-03T13:57:47.713Z,88946.00
2023-02-03T13:58:47.681Z,88946.00
2023-02-03T13:59:47.637Z,88946.00
2023-02-03T14:00:47.626Z,88946.00
2023-02-03T14:01:47.599Z,88944.00
2023-02-03T14:02:47.539Z,88936.00
2023-02-03T14:03:47.601Z,88926.00
2023-02-03T14:04:47.493Z,88924.00
2023-02-03T14:05:47.450Z,88920.00
2023-02-03T14:06:47.359Z,88922.00
2023-02-03T14:07:47.344Z,88924.00
2023-02-03T14:08:47.348Z,88922.00
2023-02-03T14:09:47.356Z,88926.00
2023-02-03T14:10:47.279Z,88930.00
2023-02-03T14:11:47.188Z,88936.00
2023-02-03T14:12:47.199Z,88936.00
2023-02-03T14:13:47.736Z,88936.00
2023-02-03T14:14:47.136Z,88932.00
2023-02-03T14:15:47.114Z,88924.00
2023-02-03T14:16:47.052Z,88922.00
2023-02-03T14:17:47.017Z,88924.00
2023-02-03T14:18:46.992Z,88920.00
2023-02-03T14:19:46.929Z,88920.00
2023-02-03T14:20:46.961Z,88916.00
2023-02-03T14:21:46.869Z,88916.00
2023-02-03T14:22:46.943Z,88914.00
2023-02-03T14:23:46.845Z,88916.00
2023-02-03T14:24:46.776Z,88916.00
2023-02-03T14:25:46.793Z,88916.00
2023-02-03T14:26:46.880Z,88920.00
2023-02-03T14:27:46.752Z,88920.00
2023-02-03T14:28:46.729Z,88920.00
2023-02-03T14:29:46.646Z,88920.00
2023-02-03T14:30:46.695Z,88920.00
2023-02-03T14:31:46.666Z,88916.00
2023-02-03T14:32:46.588Z,88912.00
2023-02-03T14:33:46.544Z,88912.00
2023-02-03T14:34:46.521Z,88912.00
2023-02-03T14:35:46.521Z,88914.00
2023-02-03T14:36:46.729Z,88918.00
2023-02-03T14:37:47.233Z,88912.00
2023-02-03T14:38:46.411Z,88906.00
2023-02-03T14:39:46.503Z,88902.00
2023-02-03T14:40:46.516Z,88900.00
2023-02-03T14:41:46.442Z,88898.00
2023-02-03T14:42:46.246Z,88898.00
2023-02-03T14:43:46.314Z,88896.00
2023-02-03T14:44:46.135Z,88902.00
2023-02-03T14:45:46.088Z,88900.00
2023-02-03T14:46:46.089Z,88900.00
2023-02-03T14:47:46.062Z,88902.00
2023-02-03T14:48:46.056Z,88898.00
2023-02-03T14:49:45.969Z,88902.00
2023-02-03T14:50:45.960Z,88904.00
2023-02-03T14:51:45.926Z,88902.00
2023-02-03T14:52:45.889Z,88904.00
2023-02-03T14:53:45.922Z,88902.00
2023-02-03T14:54:45.842Z,88908.00
2023-02-03T14:55:45.817Z,88918.00
2023-02-03T14:56:45.824Z,88918.00
2023-02-03T14:57:45.738Z,88918.00
2023-02-03T14:58:45.707Z,88916.00
2023-02-03T14:59:45.729Z,88920.00
2023-02-03T15:00:45.638Z,88922.00
2023-02-03T15:01:45.734Z,88926.00
2023-02-03T15:02:45.595Z,88928.00
2023-02-03T15:03:45.584Z,88932.00
2023-02-03T15:04:45.647Z,88934.00
2023-02-03T15:05:45.567Z,88938.00
2023-02-03T15:06:45.497Z,88940.00
2023-02-03T15:07:45.529Z,88940.00
2023-02-03T15:08:45.510Z,88936.00
2023-02-03T15:09:45.410Z,88938.00
2023-02-03T15:10:45.374Z,88938.00
2023-02-03T15:11:45.352Z,88944.00
2023-02-03T15:12:45.316Z,88953.00
2023-02-03T15:13:45.289Z,88955.00
2023-02-03T15:14:45.241Z,88957.00
2023-02-03T15:15:45.215Z,88961.00
2023-02-03T15:16:45.232Z,88959.00
2023-02-03T15:17:45.181Z,88951.00
2023-02-03T15:18:45.155Z,88946.00
2023-02-03T15:19:45.129Z,88946.00
2023-02-03T15:20:45.093Z,88944.00
2023-02-03T15:21:45.135Z,88940.00
2023-02-03T15:22:45.032Z,88934.00
2023-02-03T15:23:44.988Z,88930.00
2023-02-03T15:24:44.995Z,88928.00
2023-02-03T15:25:44.961Z,88928.00
2023-02-03T15:26:44.910Z,88924.00
2023-02-03T15:27:44.957Z,88922.00
2023-02-03T15:28:44.879Z,88924.00
2023-02-03T15:29:44.827Z,88932.00
2023-02-03T15:30:44.862Z,88940.00
2023-02-03T15:31:45.040Z,88936.00
2023-02-03T15:32:44.733Z,88930.00
2023-02-03T15:33:44.733Z,88924.00
2023-02-03T15:34:44.648Z,88918.00
2023-02-03T15:35:44.668Z,88916.00
2023-02-03T15:36:44.629Z,88912.00
2023-02-03T15:37:44.627Z,88910.00
2023-02-03T15:38:44.555Z,88916.00
2023-02-03T15:39:44.563Z,88916.00
2023-02-03T15:40:44.486Z,88914.00
2023-02-03T15:41:44.464Z,88914.00
2023-02-03T15:42:44.500Z,88914.00
2023-02-03T15:43:44.391Z,88916.00
2023-02-03T15:44:44.366Z,88916.00
2023-02-03T15:45:44.366Z,88910.00
2023-02-03T15:46:44.411Z,88902.00
2023-02-03T15:47:44.305Z,88902.00
2023-02-03T15:48:44.277Z,88904.00
2023-02-03T15:49:44.249Z,88910.00
2023-02-03T15:50:44.220Z,88908.00
2023-02-03T15:51:44.443Z,88896.00
2023-02-03T15:52:44.206Z,88885.00
2023-02-03T15:53:47.525Z,88879.00
2023-02-03T15:54:44.115Z,88879.00
2023-02-03T15:55:44.061Z,88879.00
2023-02-03T15:56:44.031Z,88885.00
2023-02-03T15:57:44.039Z,88879.00
2023-02-03T15:58:43.943Z,88877.00
2023-02-03T15:59:43.938Z,88871.00
2023-02-03T16:00:43.958Z,88869.00
2023-02-03T16:01:43.947Z,88867.00
2023-02-03T16:02:43.940Z,88867.00
2023-02-03T16:03:43.858Z,88873.00
2023-02-03T16:04:43.968Z,88871.00
2023-02-03T16:05:43.787Z,88867.00
2023-02-03T16:06:43.726Z,88867.00
2023-02-03T16:07:43.725Z,88869.00
2023-02-03T16:08:43.688Z,88873.00
2023-02-03T16:09:43.645Z,88881.00
2023-02-03T16:10:43.620Z,88879.00
2023-02-03T16:11:43.619Z,88881.00
2023-02-03T16:12:43.558Z,88883.00
2023-02-03T16:13:43.519Z,88883.00
2023-02-03T16:14:43.490Z,88885.00
2023-02-03T16:15:43.473Z,88885.00
2023-02-03T16:16:52.141Z,88883.00
2023-02-03T16:17:44.463Z,88885.00
2023-02-03T16:18:43.370Z,88887.00
2023-02-03T16:19:43.342Z,88889.00
2023-02-03T16:20:43.293Z,88892.00
2023-02-03T16:21:43.305Z,88896.00
2023-02-03T16:22:43.267Z,88896.00
2023-02-03T16:23:43.228Z,88892.00
2023-02-03T16:24:43.189Z,88898.00
2023-02-03T16:25:43.123Z,88902.00
2023-02-03T16:26:43.098Z,88889.00
2023-02-03T16:27:43.148Z,88877.00
2023-02-03T16:28:43.038Z,88877.00
2023-02-03T16:29:42.998Z,88881.00
2023-02-03T16:30:43.016Z,88891.00
2023-02-03T16:31:42.981Z,88904.00
2023-02-03T16:32:42.901Z,88908.00
2023-02-03T16:33:42.867Z,88908.00
2023-02-03T16:34:42.834Z,88908.00
2023-02-03T16:35:42.836Z,88910.00
2023-02-03T16:36:42.786Z,88916.00
2023-02-03T16:37:42.809Z,88918.00
2023-02-03T16:38:42.745Z,88914.00
2023-02-03T16:39:44.992Z,88914.00
2023-02-03T16:40:42.770Z,88912.00
2023-02-03T16:41:42.738Z,88910.00
2023-02-03T16:42:42.685Z,88914.00
2023-02-03T16:43:42.684Z,88918.00
2023-02-03T16:44:42.624Z,88920.00
2023-02-03T16:45:42.687Z,88920.00
2023-02-03T16:46:42.600Z,88922.00
2023-02-03T16:47:42.631Z,88918.00
2023-02-03T16:48:42.618Z,88914.00
2023-02-03T16:49:42.655Z,88910.00
2023-02-03T16:50:42.658Z,88912.00
2023-02-03T16:51:42.722Z,88910.00
2023-02-03T16:52:42.757Z,88912.00
2023-02-03T16:53:42.793Z,88910.00
2023-02-03T16:54:42.800Z,88912.00
2023-02-03T16:55:42.818Z,88906.00
2023-02-03T16:56:42.843Z,88904.00
2023-02-03T16:57:42.876Z,88904.00
2023-02-03T16:58:42.916Z,88908.00
2023-02-03T16:59:42.938Z,88908.00
2023-02-03T17:00:43.007Z,88906.00
2023-02-03T17:01:43.039Z,88908.00
2023-02-03T17:02:43.008Z,88908.00
2023-02-03T17:03:43.118Z,88912.00
2023-02-03T17:04:43.068Z,88910.00
2023-02-03T17:05:43.126Z,88908.00
2023-02-03T17:06:43.130Z,88900.00
2023-02-03T17:07:43.181Z,88894.00
2023-02-03T17:08:43.212Z,88892.00
2023-02-03T17:09:43.269Z,88896.00
2023-02-03T17:10:43.292Z,88898.00
2023-02-03T17:11:43.286Z,88894.00
2023-02-03T17:12:43.334Z,88894.00
2023-02-03T17:13:43.368Z,88894.00
2023-02-03T17:14:43.390Z,88889.00
2023-02-03T17:15:43.435Z,88896.00
2023-02-03T17:16:43.502Z,88904.00
2023-02-03T17:17:43.485Z,88906.00
2023-02-03T17:18:43.519Z,88894.00
2023-02-03T17:19:43.555Z,88887.00
2023-02-03T17:20:43.578Z,88881.00
2023-02-03T17:21:43.634Z,88883.00
2023-02-03T17:22:43.647Z,88887.00
2023-02-03T17:54:23.935Z,88881.00
2023-02-03T18:02:23.855Z,88877.00
2023-02-03T18:03:23.819Z,88887.00
2023-02-03T18:04:23.785Z,88891.00
2023-02-03T18:05:23.771Z,88891.00
2023-02-03T18:06:23.733Z,88887.00
2023-02-03T18:07:23.742Z,88883.00
2023-02-03T18:08:25.213Z,88887.00
2023-02-03T18:11:23.654Z,88894.00
2023-02-03T18:28:23.299Z,88930.00
2023-02-03T18:43:23.025Z,88936.00
2023-02-03T18:52:22.849Z,88930.00
2023-02-03T19:29:22.187Z,88930.00
2023-02-03T21:27:19.715Z,88902.00
2023-02-03T21:28:19.766Z,88900.00
2023-02-03T21:29:19.833Z,88906.00
2023-02-03T21:30:19.850Z,88908.00
2023-02-03T21:31:20.019Z,88902.00
2023-02-03T21:32:19.937Z,88904.00
2023-02-03T21:33:19.975Z,88900.00
2023-02-03T21:34:19.996Z,88898.00
2023-02-03T21:35:20.045Z,88892.00
2023-02-03T21:36:20.123Z,88900.00
2023-02-03T21:37:20.149Z,88898.00
2023-02-03T21:38:20.247Z,88896.00
2023-02-03T21:39:20.245Z,88894.00
2023-02-03T21:40:20.266Z,88904.00
2023-02-03T21:41:20.327Z,88900.00
2023-02-03T21:42:20.375Z,88894.00
2023-02-03T21:43:20.434Z,88896.00
2023-02-03T21:44:20.491Z,88900.00
2023-02-03T21:45:20.523Z,88900.00
2023-02-03T21:46:20.547Z,88902.00
2023-02-03T21:47:20.609Z,88902.00
2023-02-03T21:48:20.639Z,88896.00
2023-02-03T21:49:20.693Z,88902.00
2023-02-03T21:50:20.701Z,88906.00
2023-02-03T21:51:20.776Z,88902.00
2023-02-03T21:52:20.790Z,88906.00
2023-02-03T21:53:20.850Z,88908.00
2023-02-03T21:54:20.903Z,88898.00
2023-02-03T21:55:21.055Z,88898.00
2023-02-03T21:56:20.978Z,88906.00
2023-02-03T21:57:20.973Z,88904.00
2023-02-03T21:58:21.233Z,88908.00
2023-02-03T21:59:28.202Z,88908.00
2023-02-03T22:00:21.048Z,88914.00
2023-02-03T22:01:21.092Z,88916.00
2023-02-03T22:02:21.013Z,88912.00
2023-02-03T22:03:21.019Z,88900.00
2023-02-03T22:04:20.987Z,88898.00
2023-02-03T22:05:20.996Z,88898.00
2023-02-03T22:06:20.969Z,88898.00
2023-02-03T22:07:20.938Z,88894.00
2023-02-03T22:08:20.930Z,88898.00
2023-02-03T22:09:20.935Z,88891.00
2023-02-03T22:10:20.882Z,88891.00
2023-02-03T22:11:20.888Z,88891.00
2023-02-03T22:12:20.852Z,88896.00
2023-02-03T22:13:20.844Z,88896.00
2023-02-03T22:14:20.837Z,88892.00
2023-02-03T22:15:20.792Z,88896.00
2023-02-03T22:16:20.851Z,88902.00
2023-02-03T22:17:20.801Z,88902.00
2023-02-03T22:18:20.776Z,88894.00
2023-02-03T22:19:20.729Z,88896.00
2023-02-03T22:20:20.727Z,88900.00
2023-02-03T22:21:20.693Z,88896.00
2023-02-03T22:22:20.649Z,88900.00
2023-02-03T22:23:20.657Z,88900.00
2023-02-03T22:24:20.657Z,88900.00
2023-02-03T22:25:20.599Z,88898.00
2023-02-03T22:26:20.589Z,88896.00
2023-02-03T22:27:20.534Z,88900.00
2023-02-03T22:28:20.552Z,88892.00
2023-02-03T22:29:20.533Z,88900.00
2023-02-03T22:30:20.493Z,88902.00
2023-02-03T22:31:20.642Z,88902.00
2023-02-03T22:32:20.402Z,88896.00
2023-02-03T22:33:20.403Z,88894.00
2023-02-03T22:34:20.362Z,88898.00
2023-02-03T22:35:20.380Z,88900.00
2023-02-03T22:36:20.330Z,88898.00
2023-02-03T22:37:20.325Z,88896.00
2023-02-03T22:38:20.309Z,88896.00
2023-02-03T22:39:20.254Z,88894.00
2023-02-03T22:40:20.308Z,88896.00
2023-02-03T22:41:20.236Z,88892.00
2023-02-03T22:42:20.162Z,88894.00
2023-02-03T22:43:20.167Z,88894.00
2023-02-03T22:44:20.808Z,88892.00
2023-02-03T22:45:20.116Z,88887.00
2023-02-03T22:46:20.207Z,88894.00
2023-02-03T22:47:20.086Z,88894.00
2023-02-03T22:48:20.084Z,88892.00
2023-02-03T22:49:20.101Z,88894.00
2023-02-03T22:50:27.404Z,88892.00
2023-02-03T22:51:21.034Z,88889.00
2023-02-03T22:52:20.013Z,88879.00
2023-02-03T22:53:20.012Z,88881.00
2023-02-03T22:54:20.013Z,88883.00
2023-02-03T22:55:19.978Z,88885.00
2023-02-03T22:56:19.940Z,88881.00
2023-02-03T22:57:19.946Z,88883.00
2023-02-03T22:58:19.945Z,88883.00